createdAt,value
2022-12-31T00:00:30.489Z,93.5
2022-12-31T00:03:29.815Z,93.4
2022-12-31T00:06:29.158Z,93.4
2022-12-31T00:09:28.907Z,93.4
2022-12-31T00:12:29.649Z,93.4
2022-12-31T00:15:28.714Z,93.4
2022-12-31T00:18:28.891Z,93.4
2022-12-31T00:21:28.496Z,93.4
2022-12-31T00:24:30.352Z,93.3
2022-12-31T00:27:28.614Z,93.3
2022-12-31T00:30:29.819Z,93.3
2022-12-31T00:33:30.015Z,93.1
2022-12-31T00:36:29.223Z,93.1
2022-12-31T00:39:28.959Z,93.1
2022-12-31T00:42:29.774Z,93
2022-12-31T00:45:28.787Z,93
2022-12-31T00:48:28.518Z,93
2022-12-31T00:51:30.200Z,92.9
2022-12-31T00:54:28.384Z,92.9
2022-12-31T00:57:28.979Z,92.9
2022-12-31T01:00:36.333Z,92.9
2022-12-31T01:03:30.285Z,92.8
2022-12-31T01:06:28.423Z,92.8
2022-12-31T01:09:28.620Z,92.8
2022-12-31T01:12:29.454Z,92.7
2022-12-31T01:15:28.788Z,92.7
2022-12-31T01:18:28.513Z,92.7
2022-12-31T01:21:30.128Z,92.6
2022-12-31T01:24:29.285Z,92.6
2022-12-31T01:27:29.134Z,92.6
2022-12-31T01:30:29.921Z,92.6
2022-12-31T01:33:28.812Z,92.6
2022-12-31T01:36:28.508Z,92.6
2022-12-31T01:39:29.217Z,92.6
2022-12-31T01:42:29.859Z,92.5
2022-12-31T01:45:28.848Z,92.5
2022-12-31T01:48:28.479Z,92.5
2022-12-31T01:51:30.399Z,92.5
2022-12-31T01:54:28.524Z,92.5
2022-12-31T01:57:29.228Z,92.5
2022-12-31T02:00:30.119Z,92.4
2022-12-31T02:03:28.553Z,92.4
2022-12-31T02:06:28.274Z,92.4
2022-12-31T02:09:30.605Z,92.4
2022-12-31T02:12:28.701Z,92.4
2022-12-31T02:15:28.899Z,92.4
2022-12-31T02:18:28.510Z,92.4
2022-12-31T02:21:30.345Z,92.4
2022-12-31T02:24:28.354Z,92.4
2022-12-31T02:27:29.070Z,92.4
2022-12-31T02:30:29.949Z,92.5
2022-12-31T02:33:28.583Z,92.5
2022-12-31T02:36:28.951Z,92.5
2022-12-31T02:39:29.779Z,92.6
2022-12-31T02:42:28.886Z,92.6
2022-12-31T02:45:28.464Z,92.6
2022-12-31T02:48:30.135Z,92.8
2022-12-31T02:51:28.390Z,92.8
2022-12-31T02:54:28.965Z,92.8
2022-12-31T02:57:28.506Z,92.8
2022-12-31T03:00:30.249Z,93
2022-12-31T03:03:28.517Z,93
2022-12-31T03:06:28.247Z,93
2022-12-31T03:09:30.289Z,93.2
2022-12-31T03:12:28.443Z,93.2
2022-12-31T03:15:29.103Z,93.2
2022-12-31T03:18:34.726Z,93.4
2022-12-31T03:21:28.780Z,93.4
2022-12-31T03:24:28.393Z,93.4
2022-12-31T03:27:44.632Z,93.6
2022-12-31T03:30:28.847Z,93.6
2022-12-31T03:33:28.906Z,93.6
2022-12-31T03:36:28.624Z,93.6
2022-12-31T03:39:30.235Z,93.9
2022-12-31T03:42:28.195Z,93.9
2022-12-31T03:45:28.916Z,93.9
2022-12-31T03:48:29.495Z,94.1
2022-12-31T03:51:28.671Z,94.1
2022-12-31T03:54:29.173Z,94.1
2022-12-31T03:57:29.785Z,94.3
2022-12-31T04:00:29.064Z,94.3
2022-12-31T04:03:28.976Z,94.3
2022-12-31T04:06:29.627Z,94.4
2022-12-31T04:09:28.520Z,94.4
2022-12-31T04:12:29.045Z,94.4
2022-12-31T04:15:28.677Z,94.4
2022-12-31T04:18:29.406Z,94.6
2022-12-31T04:21:35.435Z,94.6
2022-12-31T04:24:29.126Z,94.6
2022-12-31T04:27:29.834Z,94.8
2022-12-31T04:30:29.961Z,94.8
2022-12-31T04:33:28.216Z,94.8
2022-12-31T04:36:30.059Z,95
2022-12-31T04:39:29.051Z,95
2022-12-31T04:42:28.884Z,95
2022-12-31T04:45:29.697Z,95.1
2022-12-31T04:48:28.799Z,95.1
2022-12-31T04:51:28.743Z,95.1
2022-12-31T04:54:28.351Z,95.1
2022-12-31T04:57:30.031Z,95.3
2022-12-31T05:00:29.409Z,95.3
2022-12-31T05:03:28.862Z,95.3
2022-12-31T05:06:29.678Z,95.4
2022-12-31T05:09:28.920Z,95.4
2022-12-31T05:12:28.633Z,95.4
2022-12-31T05:15:30.432Z,95.5
2022-12-31T05:18:28.674Z,95.5
2022-12-31T05:21:28.233Z,95.5
2022-12-31T05:24:30.361Z,95.5
2022-12-31T05:27:28.348Z,95.5
2022-12-31T05:30:29.341Z,95.5
2022-12-31T05:33:28.277Z,95.5
2022-12-31T05:36:29.901Z,95.5
2022-12-31T05:39:28.935Z,95.5
2022-12-31T05:42:28.347Z,95.5
2022-12-31T05:45:32.173Z,95.4
2022-12-31T05:48:29.448Z,95.4
2022-12-31T05:51:29.301Z,95.4
2022-12-31T05:54:29.339Z,95.4
2022-12-31T05:57:28.549Z,95.4
2022-12-31T06:00:29.246Z,95.4
2022-12-31T06:03:31.587Z,95.3
2022-12-31T06:06:28.285Z,95.3
2022-12-31T06:09:28.955Z,95.3
2022-12-31T06:12:28.455Z,95.3
2022-12-31T06:15:30.647Z,95.2
2022-12-31T06:18:28.420Z,95.2
2022-12-31T06:21:29.214Z,95.2
2022-12-31T06:24:30.355Z,95.1
2022-12-31T06:27:28.756Z,95.1
2022-12-31T06:30:29.363Z,95.1
2022-12-31T06:33:30.204Z,95
2022-12-31T06:36:28.222Z,95
2022-12-31T06:39:28.887Z,95
2022-12-31T06:42:29.531Z,95
2022-12-31T06:45:28.714Z,95
2022-12-31T06:48:28.109Z,95
2022-12-31T06:51:28.519Z,95
2022-12-31T06:54:29.671Z,95
2022-12-31T06:57:28.909Z,95
2022-12-31T07:00:28.606Z,95
2022-12-31T07:03:29.429Z,95
2022-12-31T07:06:28.725Z,95
2022-12-31T07:09:28.849Z,95
2022-12-31T07:12:29.904Z,95
2022-12-31T07:15:28.992Z,95
2022-12-31T07:18:28.548Z,95
2022-12-31T07:21:29.265Z,95
2022-12-31T07:24:28.162Z,95
2022-12-31T07:27:28.827Z,95
2022-12-31T07:30:28.546Z,95
2022-12-31T07:33:29.570Z,95
2022-12-31T07:36:28.761Z,95
2022-12-31T07:39:28.489Z,95
2022-12-31T07:42:30.344Z,95
2022-12-31T07:45:28.248Z,95
2022-12-31T07:48:28.166Z,95
2022-12-31T07:51:29.783Z,95
2022-12-31T07:54:29.045Z,95
2022-12-31T07:57:28.506Z,95
2022-12-31T08:00:30.623Z,94.9
2022-12-31T08:03:28.391Z,94.9
2022-12-31T08:06:29.128Z,94.9
2022-12-31T08:09:28.973Z,94.9
2022-12-31T08:12:29.784Z,94.9
2022-12-31T08:15:31.030Z,94.9
2022-12-31T08:18:28.751Z,94.9
2022-12-31T08:21:35.813Z,94.9
2022-12-31T08:24:29.069Z,94.9
2022-12-31T08:27:28.629Z,94.9
2022-12-31T08:30:29.339Z,94.9
2022-12-31T08:33:28.620Z,94.9
2022-12-31T08:36:29.411Z,94.9
2022-12-31T08:39:34.220Z,94.8
2022-12-31T08:42:29.100Z,94.8
2022-12-31T08:45:28.355Z,94.8
2022-12-31T08:48:29.040Z,94.8
2022-12-31T08:51:29.500Z,94.8
2022-12-31T08:54:28.251Z,94.8
2022-12-31T08:57:28.989Z,94.8
2022-12-31T09:00:29.752Z,94.8
2022-12-31T09:03:28.937Z,94.8
2022-12-31T09:06:28.647Z,94.8
2022-12-31T09:09:29.550Z,94.8
2022-12-31T09:12:28.491Z,94.8
2022-12-31T09:15:29.272Z,94.8
2022-12-31T09:18:34.052Z,94.8
2022-12-31T09:21:29.252Z,94.8
2022-12-31T09:24:28.727Z,94.8
2022-12-31T09:27:29.103Z,94.8
2022-12-31T09:30:29.939Z,94.7
2022-12-31T09:33:28.969Z,94.7
2022-12-31T09:36:28.586Z,94.7
2022-12-31T09:39:30.083Z,94.6
2022-12-31T09:42:29.335Z,94.6
2022-12-31T09:45:28.889Z,94.6
2022-12-31T09:48:29.591Z,94.4
2022-12-31T09:51:28.376Z,94.4
2022-12-31T09:54:28.930Z,94.4
2022-12-31T09:57:29.778Z,94.3
2022-12-31T10:00:28.826Z,94.3
2022-12-31T10:03:28.451Z,94.3
2022-12-31T10:06:28.158Z,94.3
2022-12-31T10:09:30.069Z,94.1
2022-12-31T10:12:29.000Z,94.1
2022-12-31T10:15:28.490Z,94.1
2022-12-31T10:18:29.924Z,94
2022-12-31T10:21:29.266Z,94
2022-12-31T10:24:28.750Z,94
2022-12-31T10:27:29.930Z,93.9
2022-12-31T10:30:29.327Z,93.9
2022-12-31T10:33:28.683Z,93.9
2022-12-31T10:36:29.228Z,93.9
2022-12-31T10:39:28.373Z,93.9
2022-12-31T10:42:28.841Z,93.9
2022-12-31T10:45:29.574Z,94.1
2022-12-31T10:48:28.667Z,94.1
2022-12-31T10:51:28.358Z,94.1
2022-12-31T10:54:29.205Z,94.1
2022-12-31T10:57:30.016Z,94.3
2022-12-31T11:00:29.365Z,94.3
2022-12-31T11:03:30.137Z,94.3
2022-12-31T11:06:30.202Z,94.6
2022-12-31T11:09:34.917Z,94.6
2022-12-31T11:12:28.459Z,94.6
2022-12-31T11:15:30.363Z,94.9
2022-12-31T11:18:28.984Z,94.9
2022-12-31T11:21:28.966Z,94.9
2022-12-31T11:24:29.780Z,95.2
2022-12-31T11:27:29.124Z,95.2
2022-12-31T11:30:28.754Z,95.2
2022-12-31T11:33:28.295Z,95.2
2022-12-31T11:36:29.111Z,95.2
2022-12-31T11:39:31.768Z,95.2
2022-12-31T11:42:28.516Z,95.2
2022-12-31T11:45:29.519Z,95.5
2022-12-31T11:48:32.432Z,95.5
2022-12-31T11:51:28.964Z,95.5
2022-12-31T11:54:29.641Z,95.7
2022-12-31T11:57:29.073Z,95.7
2022-12-31T12:00:29.271Z,95.7
2022-12-31T12:03:29.174Z,95.7
2022-12-31T12:06:28.934Z,95.7
2022-12-31T12:09:28.617Z,95.7
2022-12-31T12:12:28.236Z,95.7
2022-12-31T12:15:30.189Z,95.8
2022-12-31T12:18:28.406Z,95.8
2022-12-31T12:21:28.838Z,95.8
2022-12-31T12:24:30.222Z,95.7
2022-12-31T12:27:28.978Z,95.7
2022-12-31T12:30:29.696Z,95.7
2022-12-31T12:33:29.731Z,95.5
2022-12-31T12:36:28.802Z,95.5
2022-12-31T12:39:28.676Z,95.5
2022-12-31T12:42:29.992Z,95.2
2022-12-31T12:45:28.833Z,95.2
2022-12-31T12:48:29.116Z,95.2
2022-12-31T12:51:29.075Z,95.2
2022-12-31T12:54:28.634Z,95.2
2022-12-31T12:57:29.179Z,95.2
2022-12-31T13:00:29.191Z,95.2
2022-12-31T13:03:30.063Z,94.7
2022-12-31T13:06:28.581Z,94.7
2022-12-31T13:09:28.291Z,94.7
2022-12-31T13:13:23.469Z,94.2
2022-12-31T13:15:29.201Z,94.2
2022-12-31T13:18:28.621Z,94.2
2022-12-31T13:21:30.247Z,93.6
2022-12-31T13:24:29.109Z,93.6
2022-12-31T13:27:28.308Z,93.6
2022-12-31T13:30:29.119Z,93.6
2022-12-31T13:33:30.163Z,93
2022-12-31T13:36:29.077Z,93
2022-12-31T13:39:28.684Z,93
2022-12-31T13:42:30.189Z,92.4
2022-12-31T13:45:28.870Z,92.4
2022-12-31T13:48:28.458Z,92.4
2022-12-31T13:51:29.873Z,91.8
2022-12-31T13:54:28.807Z,91.8
2022-12-31T13:57:28.549Z,91.8
2022-12-31T14:00:29.962Z,91.4
2022-12-31T14:03:28.514Z,91.4
2022-12-31T14:06:28.883Z,91.4
2022-12-31T14:09:29.845Z,91.1
2022-12-31T14:12:28.430Z,91.1
2022-12-31T14:15:29.001Z,91.1
2022-12-31T14:18:28.491Z,91.1
2022-12-31T14:21:30.060Z,91.1
2022-12-31T14:24:28.848Z,91.1
2022-12-31T14:27:28.525Z,91.1
2022-12-31T14:30:31.897Z,91.3
2022-12-31T14:33:28.723Z,91.3
2022-12-31T14:36:28.265Z,91.3
2022-12-31T14:39:30.140Z,91.5
2022-12-31T14:42:28.276Z,91.5
2022-12-31T14:45:29.345Z,91.5
2022-12-31T14:48:30.370Z,91.9
2022-12-31T14:51:28.855Z,91.9
2022-12-31T14:54:29.499Z,91.9
2022-12-31T14:57:29.191Z,91.9
2022-12-31T15:00:30.641Z,92.4
2022-12-31T15:03:28.969Z,92.4
2022-12-31T15:06:28.372Z,92.4
2022-12-31T15:09:29.943Z,92.8
2022-12-31T15:12:29.011Z,92.8
2022-12-31T15:15:28.546Z,92.8
2022-12-31T15:18:29.963Z,93.4
2022-12-31T15:21:28.834Z,93.4
2022-12-31T15:24:28.490Z,93.4
2022-12-31T15:27:29.850Z,93.8
2022-12-31T15:30:28.646Z,93.8
2022-12-31T15:33:29.165Z,93.8
2022-12-31T15:36:28.651Z,93.8
2022-12-31T15:39:30.366Z,94.2
2022-12-31T15:42:42.420Z,94.2
2022-12-31T15:45:28.816Z,94.2
2022-12-31T15:48:30.518Z,94.4
2022-12-31T15:51:28.868Z,94.4
2022-12-31T15:54:28.596Z,94.4
2022-12-31T15:57:30.424Z,94.6
2022-12-31T16:00:29.293Z,94.6
2022-12-31T16:03:29.250Z,94.6
2022-12-31T16:06:30.233Z,94.8
2022-12-31T16:09:28.524Z,94.8
2022-12-31T16:12:38.264Z,94.8
2022-12-31T16:15:28.902Z,94.8
2022-12-31T16:18:28.832Z,94.8
2022-12-31T16:21:29.167Z,94.8
2022-12-31T16:24:28.930Z,94.8
2022-12-31T16:27:29.775Z,94.8
2022-12-31T16:30:32.512Z,94.8
2022-12-31T16:33:29.228Z,94.8
2022-12-31T16:36:29.692Z,94.9
2022-12-31T16:39:28.690Z,94.9
2022-12-31T16:42:28.257Z,94.9
2022-12-31T16:45:30.514Z,94.8
2022-12-31T16:48:28.543Z,94.8
2022-12-31T16:51:28.682Z,94.8
2022-12-31T16:54:28.264Z,94.8
2022-12-31T16:57:30.264Z,94.8
2022-12-31T17:00:32.043Z,94.8
2022-12-31T17:03:28.325Z,94.8
2022-12-31T17:06:30.253Z,94.7
2022-12-31T17:09:28.901Z,94.7
2022-12-31T17:12:28.272Z,94.7
2022-12-31T17:15:30.378Z,94.5
2022-12-31T17:18:28.541Z,94.5
2022-12-31T17:21:28.994Z,94.5
2022-12-31T17:24:29.363Z,94.3
2022-12-31T17:27:28.539Z,94.3
2022-12-31T17:30:30.614Z,94.3
2022-12-31T17:33:29.871Z,94.2
2022-12-31T17:36:28.796Z,94.2
2022-12-31T17:39:28.615Z,94.2
2022-12-31T17:42:28.652Z,94.2
2022-12-31T17:45:29.323Z,94.1
2022-12-31T17:48:28.992Z,94.1
2022-12-31T17:51:28.663Z,94.1
2022-12-31T17:54:30.052Z,94
2022-12-31T17:57:29.269Z,94
2022-12-31T18:00:36.488Z,94
2022-12-31T18:03:30.425Z,94
2022-12-31T18:06:28.663Z,94
2022-12-31T18:09:29.197Z,94
2022-12-31T18:12:29.951Z,94
2022-12-31T18:15:29.084Z,94
2022-12-31T18:18:28.914Z,94
2022-12-31T18:21:28.594Z,94
2022-12-31T18:24:30.238Z,94
2022-12-31T18:27:29.043Z,94
2022-12-31T18:30:35.730Z,94
2022-12-31T18:33:29.711Z,94.2
2022-12-31T18:36:28.522Z,94.2
2022-12-31T18:39:28.371Z,94.2
2022-12-31T18:42:29.986Z,94.4
2022-12-31T18:45:29.249Z,94.4
2022-12-31T18:48:28.211Z,94.4
2022-12-31T18:51:33.216Z,94.5
2022-12-31T18:54:28.805Z,94.5
2022-12-31T18:57:28.720Z,94.5
2022-12-31T19:00:28.268Z,94.5
2022-12-31T19:03:29.950Z,94.6
2022-12-31T19:06:28.489Z,94.6
2022-12-31T19:09:47.203Z,94.6
2022-12-31T19:12:29.371Z,94.8
2022-12-31T19:15:29.291Z,94.8
2022-12-31T19:18:29.360Z,94.8
2022-12-31T19:21:29.937Z,95
2022-12-31T19:24:28.882Z,95
2022-12-31T19:27:28.417Z,95
2022-12-31T19:30:30.079Z,95.1
2022-12-31T19:33:29.187Z,95.1
2022-12-31T19:36:28.434Z,95.1
2022-12-31T19:39:29.116Z,95.1
2022-12-31T19:42:28.614Z,95.1
2022-12-31T19:45:28.899Z,95.1
2022-12-31T19:48:33.336Z,95.1
2022-12-31T19:51:30.292Z,95.3
2022-12-31T19:54:36.187Z,95.3
2022-12-31T19:57:28.834Z,95.3
2022-12-31T20:00:28.344Z,95.3
2022-12-31T20:03:29.138Z,95.3
2022-12-31T20:06:29.089Z,95.3
2022-12-31T20:09:30.015Z,95.4
2022-12-31T20:12:28.158Z,95.4
2022-12-31T20:15:28.986Z,95.4
2022-12-31T20:18:28.637Z,95.4
2022-12-31T20:21:29.457Z,95.3
2022-12-31T20:24:28.624Z,95.3
2022-12-31T20:27:28.444Z,95.3
2022-12-31T20:30:36.877Z,95.2
2022-12-31T20:33:28.203Z,95.2
2022-12-31T20:36:28.903Z,95.2
2022-12-31T20:39:29.699Z,94.9
2022-12-31T20:42:28.797Z,94.9
2022-12-31T20:45:28.725Z,94.9
2022-12-31T20:48:29.491Z,94.4
2022-12-31T20:51:28.512Z,94.4
2022-12-31T20:54:29.099Z,94.4
2022-12-31T20:57:34.201Z,94.4
2022-12-31T21:00:31.431Z,93.8
2022-12-31T21:04:06.519Z,93.8
2022-12-31T21:06:28.537Z,93.8
2022-12-31T21:09:30.381Z,93
2022-12-31T21:12:28.817Z,93
2022-12-31T21:15:28.713Z,93
2022-12-31T21:18:30.005Z,92.2
2022-12-31T21:21:29.200Z,92.2
2022-12-31T21:24:28.631Z,92.2
2022-12-31T21:27:29.266Z,91.2
2022-12-31T21:30:30.220Z,91.2
2022-12-31T21:33:29.097Z,91.2
2022-12-31T21:36:28.722Z,91.2
2022-12-31T21:39:29.462Z,90.2
2022-12-31T21:42:28.730Z,90.2
2022-12-31T21:45:28.498Z,90.2
2022-12-31T21:48:30.329Z,89.2
2022-12-31T21:51:28.492Z,89.2
2022-12-31T21:54:29.228Z,89.2
2022-12-31T21:57:29.885Z,88.3
2022-12-31T22:00:43.815Z,88.3
2022-12-31T22:03:29.224Z,88.3
2022-12-31T22:06:29.480Z,87.3
2022-12-31T22:09:28.776Z,87.3
2022-12-31T22:12:28.381Z,87.3
2022-12-31T22:15:30.409Z,86.2
2022-12-31T22:18:28.656Z,86.2
2022-12-31T22:21:28.341Z,86.2
2022-12-31T22:24:28.914Z,86.2
2022-12-31T22:27:30.870Z,85.2
2022-12-31T22:30:29.298Z,85.2
2022-12-31T22:33:28.929Z,85.2
2022-12-31T22:36:29.850Z,84.1
2022-12-31T22:39:45.053Z,84.1
2022-12-31T22:42:28.745Z,84.1
2022-12-31T22:45:29.466Z,83
2022-12-31T22:48:28.625Z,83
2022-12-31T22:52:01.736Z,83
2022-12-31T22:54:28.999Z,83
2022-12-31T22:57:28.649Z,83
2022-12-31T23:00:28.593Z,83
2022-12-31T23:03:28.848Z,83
2022-12-31T23:06:29.883Z,81.8
2022-12-31T23:09:28.628Z,81.8
2022-12-31T23:12:28.380Z,81.8
2022-12-31T23:15:29.391Z,80.5
2022-12-31T23:18:28.801Z,80.5
2022-12-31T23:21:28.574Z,80.5
2022-12-31T23:24:29.256Z,79.1
2022-12-31T23:27:28.535Z,79.1
2022-12-31T23:30:29.167Z,79.1
2022-12-31T23:33:30.259Z,79.1
2022-12-31T23:36:28.376Z,79.1
2022-12-31T23:39:29.072Z,79.1
2022-12-31T23:42:28.798Z,79.1
2022-12-31T23:45:34.277Z,77.7
2022-12-31T23:48:28.250Z,77.7
2022-12-31T23:51:29.079Z,77.7
2022-12-31T23:54:28.803Z,77.7
2022-12-31T23:57:28.399Z,77.7
